Back to Top

Language: 

My Weather Underground Personal Weather Station Historical Data with Graphs...

Delerius Weather Station Historical Data
Daily Summary for March 20, 2017 Units:  English    Metric   Both
« Previous Day
Next Day »
Daily Weekly Monthly Yearly Custom
  High: Low: Average:
Temperature: 51.6 °F 39.9 °F 48.4 °F
Dew Point: 49.1 °F 35.1 °F 42.7 °F
Humidity: 94 % 57 % 81 %
Wind Speed: 18.0 mph 1.0 mph 10 mph
Wind Gust: 32.0 mph - -
Wind:- - WSW
Pressure: 29.60 in 29.45 in -
Precipitation: 0.06 in    
Historical Graphs
 
 
Tabular Data for March 20, 2017
Time Temperature Dew Point Pressure Wind Wind Speed Wind Gust Humidity Rainfall Rate (Hourly) solar Conditions
00:04 50.4 °F 48.7 °F 29.60 in SE 2.0 mph 5.0 mph 94 % 0.00 in 0 W/m2
00:09 50.4 °F 48.7 °F 29.59 in SE 2.0 mph 6.0 mph 94 % 0.00 in 0 W/m2
00:14 50.4 °F 48.7 °F 29.59 in SE 3.0 mph 7.0 mph 94 % 0.00 in 0 W/m2
00:19 50.4 °F 48.7 °F 29.59 in SSE 4.0 mph 7.0 mph 94 % 0.00 in 0 W/m2
00:24 50.4 °F 48.7 °F 29.59 in SSE 3.0 mph 7.0 mph 94 % 0.00 in 0 W/m2
00:29 50.4 °F 48.7 °F 29.59 in SSE 3.0 mph 6.0 mph 94 % 0.00 in 0 W/m2
00:34 50.4 °F 48.7 °F 29.59 in SSE 3.0 mph 6.0 mph 94 % 0.00 in 0 W/m2
00:39 50.4 °F 48.7 °F 29.59 in SSE 2.0 mph 5.0 mph 94 % 0.00 in 0 W/m2
00:44 50.4 °F 48.7 °F 29.59 in SSE 1.0 mph 5.0 mph 94 % 0.00 in 0 W/m2
00:50 50.4 °F 48.7 °F 29.58 in SSE 2.0 mph 5.0 mph 94 % 0.00 in 0 W/m2
00:55 50.4 °F 48.7 °F 29.58 in South 2.0 mph 7.0 mph 94 % 0.00 in 0 W/m2
01:00 50.4 °F 48.7 °F 29.58 in SSW 3.0 mph 8.0 mph 94 % 0.00 in 0 W/m2
01:05 50.5 °F 48.9 °F 29.58 in SSW 3.0 mph 8.0 mph 94 % 0.00 in 0 W/m2
01:10 50.5 °F 48.9 °F 29.58 in SW 4.0 mph 12.0 mph 94 % 0.00 in 0 W/m2
01:15 50.7 °F 48.8 °F 29.57 in SW 6.0 mph 13.0 mph 93 % 0.00 in 0 W/m2
01:20 51.1 °F 49.1 °F 29.57 in SW 7.0 mph 13.0 mph 93 % 0.00 in 0 W/m2
01:25 51.1 °F 48.8 °F 29.56 in SW 7.0 mph 12.0 mph 92 % 0.00 in 0 W/m2
01:30 51.3 °F 49.0 °F 29.56 in SW 7.0 mph 11.0 mph 92 % 0.00 in 0 W/m2
01:31 51.3 °F 49.0 °F 29.57 in SW 7.0 mph 11.0 mph 92 % 0.00 in 0 W/m2
01:36 51.3 °F 49.0 °F 29.56 in WSW 6.0 mph 12.0 mph 92 % 0.00 in 0 W/m2
01:41 51.3 °F 48.7 °F 29.56 in WSW 6.0 mph 12.0 mph 91 % 0.00 in 0 W/m2
01:46 51.3 °F 48.7 °F 29.56 in WSW 6.0 mph 12.0 mph 91 % 0.00 in 0 W/m2
01:51 51.4 °F 48.9 °F 29.56 in SW 7.0 mph 13.0 mph 91 % 0.00 in 0 W/m2
01:56 51.4 °F 48.9 °F 29.55 in SW 7.0 mph 13.0 mph 91 % 0.00 in 0 W/m2
02:01 51.4 °F 48.9 °F 29.55 in SW 8.0 mph 15.0 mph 91 % 0.00 in 0 W/m2
02:06 51.4 °F 48.9 °F 29.55 in SW 8.0 mph 16.0 mph 91 % 0.00 in 0 W/m2
02:11 51.4 °F 48.9 °F 29.55 in SW 7.0 mph 16.0 mph 91 % 0.00 in 0 W/m2
02:16 51.4 °F 48.9 °F 29.55 in SW 7.0 mph 16.0 mph 91 % 0.00 in 0 W/m2
02:21 51.4 °F 48.6 °F 29.55 in SW 8.0 mph 13.0 mph 90 % 0.00 in 0 W/m2
02:26 51.4 °F 48.6 °F 29.55 in SW 8.0 mph 13.0 mph 90 % 0.00 in 0 W/m2
02:31 51.4 °F 48.6 °F 29.55 in WSW 7.0 mph 14.0 mph 90 % 0.00 in 0 W/m2
02:36 51.4 °F 48.6 °F 29.54 in WSW 8.0 mph 14.0 mph 90 % 0.00 in 0 W/m2
02:41 51.6 °F 48.5 °F 29.54 in WSW 9.0 mph 15.0 mph 89 % 0.00 in 0 W/m2
02:46 51.6 °F 48.5 °F 29.54 in SW 8.0 mph 15.0 mph 89 % 0.00 in 0 W/m2
02:51 51.6 °F 48.5 °F 29.54 in SW 8.0 mph 15.0 mph 89 % 0.00 in 0 W/m2
02:56 51.6 °F 48.8 °F 29.54 in SW 8.0 mph 14.0 mph 90 % 0.00 in 0 W/m2
03:01 51.4 °F 48.6 °F 29.54 in SW 9.0 mph 14.0 mph 90 % 0.01 in 0 W/m2
03:06 51.3 °F 48.7 °F 29.53 in SW 8.0 mph 15.0 mph 91 % 0.01 in 0 W/m2
03:11 51.3 °F 48.7 °F 29.53 in SW 7.0 mph 15.0 mph 91 % 0.01 in 0 W/m2
03:16 51.1 °F 48.5 °F 29.53 in WSW 5.0 mph 9.0 mph 91 % 0.01 in 0 W/m2
03:21 50.9 °F 48.4 °F 29.52 in WSW 5.0 mph 10.0 mph 91 % 0.01 in 0 W/m2
03:26 50.9 °F 48.4 °F 29.53 in SW 5.0 mph 10.0 mph 91 % 0.01 in 0 W/m2
03:31 50.7 °F 48.2 °F 29.53 in WSW 6.0 mph 13.0 mph 91 % 0.01 in 0 W/m2
03:36 50.9 °F 48.4 °F 29.53 in WSW 8.0 mph 14.0 mph 91 % 0.01 in 0 W/m2
03:41 51.1 °F 48.2 °F 29.52 in WSW 8.0 mph 14.0 mph 90 % 0.01 in 0 W/m2
03:46 51.3 °F 48.1 °F 29.52 in WSW 8.0 mph 14.0 mph 89 % 0.01 in 0 W/m2
03:51 51.3 °F 48.1 °F 29.52 in WSW 9.0 mph 14.0 mph 89 % 0.01 in 0 W/m2
03:56 51.4 °F 48.3 °F 29.52 in SW 6.0 mph 12.0 mph 89 % 0.01 in 0 W/m2
04:01 51.3 °F 48.1 °F 29.52 in SW 6.0 mph 10.0 mph 89 % 0.00 in 0 W/m2
04:06 51.3 °F 48.1 °F 29.52 in SW 7.0 mph 11.0 mph 89 % 0.00 in 0 W/m2
04:11 51.3 °F 48.1 °F 29.51 in SW 7.0 mph 11.0 mph 89 % 0.00 in 0 W/m2
04:17 51.3 °F 48.1 °F 29.51 in SW 7.0 mph 11.0 mph 89 % 0.00 in 0 W/m2
04:22 51.1 °F 48.0 °F 29.51 in SW 7.0 mph 11.0 mph 89 % 0.00 in 0 W/m2
04:27 51.1 °F 48.0 °F 29.51 in SW 8.0 mph 13.0 mph 89 % 0.00 in 0 W/m2
04:32 51.1 °F 48.0 °F 29.51 in SW 9.0 mph 13.0 mph 89 % 0.00 in 0 W/m2
04:37 51.3 °F 47.8 °F 29.51 in SW 10.0 mph 18.0 mph 88 % 0.00 in 0 W/m2
04:42 51.4 °F 48.0 °F 29.51 in SW 12.0 mph 21.0 mph 88 % 0.00 in 0 W/m2
04:47 51.4 °F 48.0 °F 29.51 in SW 12.0 mph 21.0 mph 88 % 0.00 in 0 W/m2
04:52 51.4 °F 48.0 °F 29.51 in SW 11.0 mph 19.0 mph 88 % 0.00 in 0 W/m2
04:57 51.4 °F 48.0 °F 29.50 in SW 11.0 mph 18.0 mph 88 % 0.00 in 0 W/m2
05:02 51.4 °F 48.0 °F 29.50 in SW 10.0 mph 18.0 mph 88 % 0.00 in 0 W/m2
05:07 51.4 °F 48.0 °F 29.50 in SW 10.0 mph 16.0 mph 88 % 0.00 in 0 W/m2
05:12 51.4 °F 47.7 °F 29.50 in SW 11.0 mph 19.0 mph 87 % 0.00 in 0 W/m2
05:17 51.4 °F 47.7 °F 29.50 in SW 11.0 mph 19.0 mph 87 % 0.00 in 0 W/m2
05:22 51.6 °F 47.9 °F 29.50 in SW 11.0 mph 19.0 mph 87 % 0.00 in 0 W/m2
05:27 51.6 °F 47.9 °F 29.50 in SW 11.0 mph 19.0 mph 87 % 0.00 in 0 W/m2
05:32 51.4 °F 47.7 °F 29.49 in SW 9.0 mph 16.0 mph 87 % 0.00 in 0 W/m2
05:37 51.4 °F 47.7 °F 29.49 in SW 10.0 mph 21.0 mph 87 % 0.00 in 0 W/m2
05:42 51.3 °F 47.2 °F 29.49 in SW 10.0 mph 21.0 mph 86 % 0.00 in 0 W/m2
05:47 51.3 °F 47.2 °F 29.50 in SW 11.0 mph 20.0 mph 86 % 0.00 in 0 W/m2
05:52 51.3 °F 47.2 °F 29.49 in SW 12.0 mph 20.0 mph 86 % 0.00 in 0 W/m2
05:57 51.4 °F 47.1 °F 29.50 in SW 11.0 mph 19.0 mph 85 % 0.00 in 0 W/m2
06:02 51.4 °F 47.1 °F 29.49 in SW 11.0 mph 18.0 mph 85 % 0.00 in 0 W/m2
06:07 51.4 °F 47.1 °F 29.49 in SW 12.0 mph 21.0 mph 85 % 0.00 in 0 W/m2
06:12 51.3 °F 46.9 °F 29.49 in SW 12.0 mph 21.0 mph 85 % 0.00 in 0 W/m2
06:17 51.3 °F 46.9 °F 29.48 in SW 11.0 mph 21.0 mph 85 % 0.00 in 5 W/m2
06:22 51.3 °F 46.9 °F 29.48 in SW 12.0 mph 21.0 mph 85 % 0.00 in 11 W/m2
06:27 51.3 °F 46.9 °F 29.48 in SW 13.0 mph 21.0 mph 85 % 0.00 in 12 W/m2
06:32 51.1 °F 46.7 °F 29.48 in SW 12.0 mph 19.0 mph 85 % 0.00 in 19 W/m2
06:37 51.1 °F 46.7 °F 29.48 in SW 11.0 mph 19.0 mph 85 % 0.00 in 32 W/m2
06:42 51.1 °F 46.7 °F 29.48 in SW 11.0 mph 21.0 mph 85 % 0.00 in 37 W/m2
06:44 51.1 °F 46.4 °F 29.48 in SW 11.0 mph 21.0 mph 84 % 0.00 in 35 W/m2
06:49 51.1 °F 46.4 °F 29.48 in SW 13.0 mph 22.0 mph 84 % 0.00 in 21 W/m2
06:54 51.1 °F 46.4 °F 29.48 in SW 14.0 mph 23.0 mph 84 % 0.00 in 26 W/m2
06:59 51.1 °F 46.4 °F 29.48 in SW 14.0 mph 24.0 mph 84 % 0.00 in 28 W/m2
07:04 51.1 °F 46.4 °F 29.48 in SW 14.0 mph 24.0 mph 84 % 0.00 in 35 W/m2
07:09 50.9 °F 46.2 °F 29.48 in SW 12.0 mph 21.0 mph 84 % 0.00 in 28 W/m2
07:14 50.7 °F 45.7 °F 29.47 in SW 13.0 mph 20.0 mph 83 % 0.00 in 28 W/m2
07:19 50.5 °F 44.9 °F 29.48 in WSW 13.0 mph 21.0 mph 81 % 0.00 in 25 W/m2
07:24 50.4 °F 44.7 °F 29.48 in WSW 12.0 mph 21.0 mph 81 % 0.00 in 33 W/m2
07:29 50.2 °F 44.6 °F 29.48 in WSW 11.0 mph 22.0 mph 81 % 0.00 in 49 W/m2
07:34 50.2 °F 44.6 °F 29.48 in WSW 11.0 mph 22.0 mph 81 % 0.00 in 25 W/m2
07:39 50.0 °F 44.1 °F 29.48 in WSW 10.0 mph 20.0 mph 80 % 0.00 in 33 W/m2
07:44 50.0 °F 44.1 °F 29.48 in WSW 9.0 mph 19.0 mph 80 % 0.00 in 40 W/m2
07:49 50.0 °F 44.1 °F 29.48 in WSW 9.0 mph 15.0 mph 80 % 0.00 in 49 W/m2
07:54 49.8 °F 44.2 °F 29.48 in WSW 9.0 mph 15.0 mph 81 % 0.00 in 47 W/m2
07:59 49.8 °F 44.2 °F 29.47 in WSW 8.0 mph 14.0 mph 81 % 0.00 in 74 W/m2
08:04 49.8 °F 43.9 °F 29.47 in WSW 10.0 mph 18.0 mph 80 % 0.00 in 49 W/m2
08:09 49.8 °F 43.9 °F 29.46 in WSW 10.0 mph 18.0 mph 80 % 0.00 in 62 W/m2
08:14 49.8 °F 44.2 °F 29.47 in WSW 10.0 mph 15.0 mph 81 % 0.00 in 65 W/m2
08:20 49.8 °F 44.5 °F 29.47 in WSW 10.0 mph 15.0 mph 82 % 0.00 in 83 W/m2
08:25 49.8 °F 44.9 °F 29.46 in WSW 8.0 mph 13.0 mph 83 % 0.00 in 67 W/m2
08:30 49.8 °F 44.9 °F 29.46 in SW 7.0 mph 12.0 mph 83 % 0.00 in 104 W/m2
08:35 49.8 °F 45.2 °F 29.46 in SW 7.0 mph 12.0 mph 84 % 0.00 in 116 W/m2
08:40 49.8 °F 45.5 °F 29.46 in SW 7.0 mph 12.0 mph 85 % 0.00 in 109 W/m2
08:45 49.8 °F 45.5 °F 29.46 in SW 7.0 mph 12.0 mph 85 % 0.00 in 102 W/m2
08:50 50.0 °F 45.7 °F 29.46 in SW 7.0 mph 14.0 mph 85 % 0.00 in 123 W/m2
08:55 50.0 °F 46.0 °F 29.46 in SW 7.0 mph 14.0 mph 86 % 0.00 in 113 W/m2
09:00 50.2 °F 46.2 °F 29.45 in SW 7.0 mph 11.0 mph 86 % 0.00 in 90 W/m2
09:05 50.2 °F 46.2 °F 29.45 in WSW 6.0 mph 10.0 mph 86 % 0.00 in 107 W/m2
09:10 50.4 °F 46.6 °F 29.45 in WSW 6.0 mph 10.0 mph 87 % 0.00 in 109 W/m2
09:15 50.4 °F 46.6 °F 29.45 in WSW 7.0 mph 16.0 mph 87 % 0.00 in 105 W/m2
09:20 50.4 °F 46.6 °F 29.45 in West 7.0 mph 16.0 mph 87 % 0.00 in 97 W/m2
09:25 50.4 °F 46.6 °F 29.45 in West 8.0 mph 13.0 mph 87 % 0.00 in 107 W/m2
09:30 50.4 °F 46.6 °F 29.45 in West 8.0 mph 15.0 mph 87 % 0.00 in 86 W/m2
09:35 50.4 °F 46.3 °F 29.45 in West 9.0 mph 15.0 mph 86 % 0.00 in 72 W/m2
09:40 50.2 °F 46.2 °F 29.45 in West 10.0 mph 15.0 mph 86 % 0.00 in 63 W/m2
09:45 50.2 °F 46.2 °F 29.45 in WSW 10.0 mph 15.0 mph 86 % 0.00 in 56 W/m2
09:50 50.0 °F 46.0 °F 29.45 in West 9.0 mph 14.0 mph 86 % 0.00 in 58 W/m2
09:55 49.8 °F 46.1 °F 29.45 in West 10.0 mph 16.0 mph 87 % 0.00 in 53 W/m2
10:00 49.6 °F 45.9 °F 29.45 in West 10.0 mph 16.0 mph 87 % 0.00 in 54 W/m2
10:05 49.3 °F 45.3 °F 29.45 in WNW 11.0 mph 23.0 mph 86 % 0.01 in 72 W/m2
10:10 48.9 °F 45.2 °F 29.45 in WNW 10.0 mph 23.0 mph 87 % 0.01 in 113 W/m2
10:15 48.9 °F 45.2 °F 29.45 in WNW 10.0 mph 21.0 mph 87 % 0.01 in 158 W/m2
10:20 48.7 °F 45.0 °F 29.45 in WNW 11.0 mph 21.0 mph 87 % 0.01 in 109 W/m2
10:25 48.6 °F 44.9 °F 29.45 in WNW 12.0 mph 20.0 mph 87 % 0.01 in 91 W/m2
10:30 48.4 °F 44.4 °F 29.45 in West 11.0 mph 20.0 mph 86 % 0.01 in 90 W/m2
10:35 48.2 °F 44.2 °F 29.45 in West 11.0 mph 19.0 mph 86 % 0.01 in 107 W/m2
10:40 48.0 °F 44.0 °F 29.45 in West 11.0 mph 20.0 mph 86 % 0.01 in 137 W/m2
10:45 48.0 °F 44.0 °F 29.45 in West 12.0 mph 22.0 mph 86 % 0.02 in 188 W/m2
10:50 48.0 °F 44.3 °F 29.45 in West 11.0 mph 22.0 mph 87 % 0.02 in 236 W/m2
10:55 48.2 °F 44.5 °F 29.45 in West 11.0 mph 18.0 mph 87 % 0.02 in 207 W/m2
11:00 48.4 °F 44.7 °F 29.45 in West 12.0 mph 23.0 mph 87 % 0.02 in 158 W/m2
11:05 48.4 °F 44.4 °F 29.45 in West 12.0 mph 23.0 mph 86 % 0.01 in 123 W/m2
11:10 48.4 °F 44.4 °F 29.46 in West 12.0 mph 21.0 mph 86 % 0.01 in 97 W/m2
11:15 48.4 °F 44.4 °F 29.46 in West 11.0 mph 20.0 mph 86 % 0.01 in 91 W/m2
11:20 48.2 °F 44.2 °F 29.46 in West 11.0 mph 22.0 mph 86 % 0.01 in 98 W/m2
11:25 48.0 °F 44.0 °F 29.46 in West 12.0 mph 22.0 mph 86 % 0.01 in 60 W/m2
11:30 48.0 °F 44.0 °F 29.46 in West 10.0 mph 16.0 mph 86 % 0.01 in 58 W/m2
11:35 47.8 °F 44.2 °F 29.46 in West 11.0 mph 21.0 mph 87 % 0.01 in 70 W/m2
11:40 47.5 °F 43.5 °F 29.45 in West 13.0 mph 23.0 mph 86 % 0.01 in 84 W/m2
11:45 47.3 °F 43.3 °F 29.45 in West 13.0 mph 23.0 mph 86 % 0.00 in 111 W/m2
11:50 47.3 °F 43.6 °F 29.46 in West 11.0 mph 19.0 mph 87 % 0.01 in 114 W/m2
11:55 47.1 °F 43.4 °F 29.46 in West 10.0 mph 18.0 mph 87 % 0.01 in 127 W/m2
12:00 47.1 °F 43.7 °F 29.46 in West 10.0 mph 18.0 mph 88 % 0.01 in 160 W/m2
12:05 47.1 °F 43.7 °F 29.46 in West 11.0 mph 22.0 mph 88 % 0.01 in 169 W/m2
12:10 47.3 °F 43.9 °F 29.46 in West 12.0 mph 22.0 mph 88 % 0.01 in 169 W/m2
12:15 47.3 °F 43.9 °F 29.46 in West 12.0 mph 20.0 mph 88 % 0.01 in 162 W/m2
12:20 47.5 °F 43.8 °F 29.46 in West 10.0 mph 20.0 mph 87 % 0.01 in 132 W/m2
12:25 47.5 °F 43.8 °F 29.45 in West 9.0 mph 16.0 mph 87 % 0.01 in 127 W/m2
12:30 47.3 °F 43.3 °F 29.45 in West 9.0 mph 15.0 mph 86 % 0.01 in 134 W/m2
12:35 47.3 °F 43.3 °F 29.45 in West 9.0 mph 14.0 mph 86 % 0.01 in 162 W/m2
12:40 47.5 °F 43.5 °F 29.45 in West 10.0 mph 16.0 mph 86 % 0.01 in 165 W/m2
12:45 47.7 °F 43.7 °F 29.45 in West 11.0 mph 16.0 mph 86 % 0.00 in 176 W/m2
12:50 47.8 °F 43.9 °F 29.45 in West 11.0 mph 16.0 mph 86 % 0.00 in 199 W/m2
12:55 48.0 °F 44.0 °F 29.45 in West 11.0 mph 19.0 mph 86 % 0.00 in 76 W/m2
13:00 48.0 °F 44.3 °F 29.46 in West 13.0 mph 22.0 mph 87 % 0.00 in 42 W/m2
13:05 47.7 °F 44.0 °F 29.46 in West 14.0 mph 22.0 mph 87 % 0.01 in 151 W/m2
13:10 47.5 °F 44.1 °F 29.45 in WNW 12.0 mph 21.0 mph 88 % 0.01 in 236 W/m2
13:15 47.1 °F 43.4 °F 29.46 in West 11.0 mph 21.0 mph 87 % 0.01 in 183 W/m2
13:20 46.9 °F 43.3 °F 29.46 in West 12.0 mph 23.0 mph 87 % 0.01 in 200 W/m2
13:25 46.9 °F 43.0 °F 29.46 in West 13.0 mph 23.0 mph 86 % 0.01 in 206 W/m2
13:30 47.1 °F 43.1 °F 29.46 in West 13.0 mph 21.0 mph 86 % 0.01 in 318 W/m2
13:35 47.5 °F 43.2 °F 29.46 in West 13.0 mph 28.0 mph 85 % 0.01 in 338 W/m2
13:41 47.7 °F 43.1 °F 29.46 in West 13.0 mph 28.0 mph 84 % 0.01 in 271 W/m2
13:45 47.8 °F 42.9 °F 29.46 in West 13.0 mph 22.0 mph 83 % 0.01 in 297 W/m2
13:50 48.2 °F 43.0 °F 29.46 in West 14.0 mph 25.0 mph 82 % 0.01 in 547 W/m2
13:56 48.4 °F 42.2 °F 29.47 in West 17.0 mph 27.0 mph 79 % 0.01 in 332 W/m2
14:01 48.6 °F 42.0 °F 29.47 in West 18.0 mph 27.0 mph 78 % 0.01 in 657 W/m2
14:06 48.9 °F 42.0 °F 29.47 in West 17.0 mph 30.0 mph 77 % 0.00 in 598 W/m2
14:11 49.6 °F 42.7 °F 29.47 in WNW 16.0 mph 30.0 mph 77 % 0.00 in 582 W/m2
14:16 49.8 °F 41.9 °F 29.48 in WNW 15.0 mph 26.0 mph 74 % 0.00 in 230 W/m2
14:21 49.6 °F 41.7 °F 29.47 in West 14.0 mph 24.0 mph 74 % 0.00 in 610 W/m2
14:26 49.8 °F 41.5 °F 29.47 in West 14.0 mph 23.0 mph 73 % 0.00 in 543 W/m2
14:31 50.0 °F 41.7 °F 29.47 in West 14.0 mph 23.0 mph 73 % 0.00 in 543 W/m2
14:36 50.4 °F 41.3 °F 29.47 in West 14.0 mph 25.0 mph 71 % 0.00 in 527 W/m2
14:41 50.7 °F 40.5 °F 29.47 in West 14.0 mph 25.0 mph 68 % 0.00 in 534 W/m2
14:46 50.7 °F 39.8 °F 29.47 in WNW 16.0 mph 29.0 mph 66 % 0.00 in 485 W/m2
14:51 50.7 °F 39.8 °F 29.47 in West 17.0 mph 29.0 mph 66 % 0.00 in 480 W/m2
14:56 50.7 °F 39.8 °F 29.47 in West 14.0 mph 25.0 mph 66 % 0.00 in 475 W/m2
15:01 50.7 °F 39.8 °F 29.47 in West 14.0 mph 25.0 mph 66 % 0.00 in 424 W/m2
15:06 50.7 °F 39.8 °F 29.46 in WNW 15.0 mph 23.0 mph 66 % 0.00 in 415 W/m2
15:11 50.5 °F 40.0 °F 29.47 in WNW 14.0 mph 23.0 mph 67 % 0.00 in 139 W/m2
15:12 50.5 °F 40.0 °F 29.47 in WNW 14.0 mph 23.0 mph 67 % 0.00 in 540 W/m2
15:17 50.4 °F 39.8 °F 29.47 in West 15.0 mph 26.0 mph 67 % 0.00 in 455 W/m2
15:22 50.2 °F 38.9 °F 29.47 in West 17.0 mph 27.0 mph 65 % 0.00 in 427 W/m2
15:27 50.4 °F 37.4 °F 29.47 in West 17.0 mph 27.0 mph 61 % 0.00 in 418 W/m2
15:32 50.4 °F 37.8 °F 29.48 in WNW 16.0 mph 27.0 mph 62 % 0.00 in 385 W/m2
15:37 50.4 °F 36.6 °F 29.48 in West 17.0 mph 28.0 mph 59 % 0.00 in 371 W/m2
15:42 50.4 °F 36.6 °F 29.48 in West 18.0 mph 32.0 mph 59 % 0.00 in 357 W/m2
15:47 50.4 °F 36.1 °F 29.48 in West 17.0 mph 32.0 mph 58 % 0.00 in 350 W/m2
15:52 50.2 °F 36.0 °F 29.48 in West 17.0 mph 30.0 mph 58 % 0.00 in 336 W/m2
15:57 50.2 °F 36.0 °F 29.48 in West 17.0 mph 29.0 mph 58 % 0.00 in 318 W/m2
16:02 50.2 °F 36.0 °F 29.48 in West 16.0 mph 29.0 mph 58 % 0.00 in 304 W/m2
16:07 49.8 °F 35.2 °F 29.48 in West 17.0 mph 28.0 mph 57 % 0.00 in 292 W/m2
16:12 49.8 °F 35.2 °F 29.48 in West 17.0 mph 28.0 mph 57 % 0.00 in 274 W/m2
16:17 49.8 °F 35.6 °F 29.48 in West 16.0 mph 28.0 mph 58 % 0.00 in 262 W/m2
16:22 49.8 °F 35.6 °F 29.48 in West 17.0 mph 27.0 mph 58 % 0.00 in 250 W/m2
16:27 49.8 °F 36.1 °F 29.48 in West 17.0 mph 27.0 mph 59 % 0.00 in 234 W/m2
16:32 49.8 °F 36.5 °F 29.48 in West 16.0 mph 27.0 mph 60 % 0.00 in 221 W/m2
16:37 49.8 °F 36.5 °F 29.48 in West 15.0 mph 28.0 mph 60 % 0.00 in 207 W/m2
16:42 49.6 °F 36.3 °F 29.48 in West 15.0 mph 29.0 mph 60 % 0.00 in 193 W/m2
16:47 49.5 °F 36.1 °F 29.49 in West 16.0 mph 29.0 mph 60 % 0.00 in 176 W/m2
16:48 49.5 °F 36.1 °F 29.49 in West 16.0 mph 29.0 mph 60 % 0.00 in 176 W/m2
16:53 49.5 °F 37.0 °F 29.49 in West 15.0 mph 27.0 mph 62 % 0.00 in 165 W/m2
16:58 49.5 °F 37.0 °F 29.49 in West 12.0 mph 23.0 mph 62 % 0.00 in 155 W/m2
17:03 49.3 °F 36.8 °F 29.49 in West 12.0 mph 23.0 mph 62 % 0.00 in 146 W/m2
17:08 49.3 °F 37.2 °F 29.50 in West 12.0 mph 23.0 mph 63 % 0.00 in 132 W/m2
17:13 49.1 °F 36.6 °F 29.50 in West 12.0 mph 21.0 mph 62 % 0.00 in 114 W/m2
17:18 48.9 °F 36.5 °F 29.50 in West 11.0 mph 21.0 mph 62 % 0.00 in 102 W/m2
17:23 48.7 °F 35.9 °F 29.50 in West 11.0 mph 21.0 mph 61 % 0.00 in 88 W/m2
17:28 48.6 °F 35.7 °F 29.50 in West 13.0 mph 23.0 mph 61 % 0.00 in 76 W/m2
17:33 48.4 °F 35.1 °F 29.50 in West 13.0 mph 25.0 mph 60 % 0.00 in 62 W/m2
17:38 48.0 °F 35.2 °F 29.50 in West 12.0 mph 25.0 mph 61 % 0.00 in 47 W/m2
17:43 48.0 °F 35.6 °F 29.50 in West 9.0 mph 19.0 mph 62 % 0.00 in 25 W/m2
17:48 47.7 °F 35.3 °F 29.50 in West 9.0 mph 16.0 mph 62 % 0.00 in 19 W/m2
17:53 47.7 °F 35.3 °F 29.50 in West 10.0 mph 16.0 mph 62 % 0.00 in 14 W/m2
17:58 47.5 °F 35.5 °F 29.51 in West 9.0 mph 16.0 mph 63 % 0.00 in 12 W/m2
18:01 47.3 °F 35.3 °F 29.51 in West 8.0 mph 16.0 mph 63 % 0.00 in 11 W/m2
18:06 47.1 °F 35.6 °F 29.51 in West 8.0 mph 16.0 mph 64 % 0.00 in 9 W/m2
18:11 46.9 °F 35.8 °F 29.50 in West 7.0 mph 12.0 mph 65 % 0.00 in 7 W/m2
18:16 46.6 °F 35.8 °F 29.51 in West 6.0 mph 11.0 mph 66 % 0.00 in 5 W/m2
18:21 46.6 °F 36.2 °F 29.51 in West 4.0 mph 8.0 mph 67 % 0.00 in 0 W/m2
18:26 46.4 °F 36.0 °F 29.51 in WSW 3.0 mph 6.0 mph 67 % 0.00 in 0 W/m2
18:31 46.2 °F 36.2 °F 29.51 in WSW 2.0 mph 6.0 mph 68 % 0.00 in 0 W/m2
18:36 46.0 °F 36.1 °F 29.51 in WSW 2.0 mph 5.0 mph 68 % 0.00 in 0 W/m2
18:41 45.9 °F 35.9 °F 29.52 in WSW 1.0 mph 5.0 mph 68 % 0.00 in 0 W/m2
18:46 45.9 °F 36.3 °F 29.52 in WSW 1.0 mph 5.0 mph 69 % 0.00 in 0 W/m2
18:51 45.9 °F 36.3 °F 29.52 in SW 3.0 mph 9.0 mph 69 % 0.00 in 0 W/m2
18:56 45.9 °F 36.6 °F 29.52 in SW 4.0 mph 9.0 mph 70 % 0.00 in 0 W/m2
19:01 46.0 °F 37.2 °F 29.52 in SW 4.0 mph 7.0 mph 71 % 0.00 in 0 W/m2
19:06 46.0 °F 37.5 °F 29.52 in WSW 3.0 mph 6.0 mph 72 % 0.00 in 0 W/m2
19:11 45.9 °F 37.3 °F 29.52 in WSW 4.0 mph 9.0 mph 72 % 0.00 in 0 W/m2
19:16 45.9 °F 37.0 °F 29.52 in WSW 5.0 mph 12.0 mph 71 % 0.00 in 0 W/m2
19:21 45.9 °F 37.7 °F 29.52 in WSW 6.0 mph 12.0 mph 73 % 0.00 in 0 W/m2
19:26 45.7 °F 37.5 °F 29.53 in West 7.0 mph 12.0 mph 73 % 0.00 in 0 W/m2
19:31 45.7 °F 37.9 °F 29.53 in West 6.0 mph 9.0 mph 74 % 0.00 in 0 W/m2
19:36 45.7 °F 38.2 °F 29.53 in West 7.0 mph 12.0 mph 75 % 0.00 in 0 W/m2
19:41 45.7 °F 38.9 °F 29.54 in WSW 10.0 mph 25.0 mph 77 % 0.00 in 0 W/m2
19:46 45.0 °F 38.8 °F 29.54 in WSW 12.0 mph 25.0 mph 79 % 0.00 in 0 W/m2
19:51 44.6 °F 38.8 °F 29.54 in WSW 11.0 mph 24.0 mph 80 % 0.00 in 0 W/m2
19:56 44.4 °F 39.0 °F 29.54 in WSW 11.0 mph 19.0 mph 81 % 0.00 in 0 W/m2
20:01 43.9 °F 38.4 °F 29.54 in SW 11.0 mph 19.0 mph 81 % 0.00 in 0 W/m2
20:06 43.3 °F 38.2 °F 29.54 in WSW 11.0 mph 19.0 mph 82 % 0.00 in 0 W/m2
20:11 43.0 °F 38.2 °F 29.54 in WSW 8.0 mph 18.0 mph 83 % 0.00 in 0 W/m2
20:17 42.8 °F 38.0 °F 29.54 in WSW 7.0 mph 12.0 mph 83 % 0.00 in 0 W/m2
20:22 42.6 °F 38.1 °F 29.54 in SW 7.0 mph 12.0 mph 84 % 0.00 in 0 W/m2
20:27 42.4 °F 37.9 °F 29.54 in SW 6.0 mph 11.0 mph 84 % 0.00 in 0 W/m2
20:32 42.1 °F 37.6 °F 29.54 in SW 5.0 mph 9.0 mph 84 % 0.00 in 0 W/m2
20:37 42.1 °F 37.9 °F 29.54 in SW 5.0 mph 9.0 mph 85 % 0.00 in 0 W/m2
20:42 41.7 °F 37.5 °F 29.54 in SW 5.0 mph 8.0 mph 85 % 0.00 in 0 W/m2
20:47 41.5 °F 37.7 °F 29.54 in WSW 4.0 mph 8.0 mph 86 % 0.00 in 0 W/m2
20:52 41.4 °F 37.5 °F 29.54 in WSW 4.0 mph 8.0 mph 86 % 0.00 in 0 W/m2
20:57 41.2 °F 37.3 °F 29.54 in WSW 6.0 mph 12.0 mph 86 % 0.00 in 0 W/m2
21:02 41.4 °F 37.8 °F 29.54 in WSW 8.0 mph 12.0 mph 87 % 0.00 in 0 W/m2
21:07 41.9 °F 38.3 °F 29.53 in WSW 9.0 mph 16.0 mph 87 % 0.00 in 0 W/m2
21:12 42.3 °F 38.4 °F 29.53 in WSW 9.0 mph 16.0 mph 86 % 0.00 in 0 W/m2
21:17 42.6 °F 38.4 °F 29.53 in SW 10.0 mph 16.0 mph 85 % 0.00 in 0 W/m2
21:22 43.0 °F 38.5 °F 29.53 in WSW 10.0 mph 16.0 mph 84 % 0.00 in 0 W/m2
21:27 43.0 °F 38.5 °F 29.53 in WSW 11.0 mph 19.0 mph 84 % 0.00 in 0 W/m2
21:32 43.0 °F 38.5 °F 29.53 in WSW 10.0 mph 19.0 mph 84 % 0.00 in 0 W/m2
21:37 43.2 °F 38.3 °F 29.53 in WSW 10.0 mph 18.0 mph 83 % 0.00 in 0 W/m2
21:42 43.2 °F 38.3 °F 29.53 in WSW 11.0 mph 19.0 mph 83 % 0.00 in 0 W/m2
21:47 43.3 °F 38.5 °F 29.53 in WSW 12.0 mph 22.0 mph 83 % 0.00 in 0 W/m2
21:52 43.3 °F 38.2 °F 29.53 in WSW 13.0 mph 23.0 mph 82 % 0.00 in 0 W/m2
21:57 43.3 °F 37.9 °F 29.53 in WSW 13.0 mph 23.0 mph 81 % 0.00 in 0 W/m2
22:02 43.5 °F 37.8 °F 29.53 in WSW 13.0 mph 22.0 mph 80 % 0.00 in 0 W/m2
22:07 43.5 °F 37.8 °F 29.53 in WSW 13.0 mph 22.0 mph 80 % 0.00 in 0 W/m2
22:12 43.3 °F 37.6 °F 29.53 in WSW 11.0 mph 19.0 mph 80 % 0.00 in 0 W/m2
22:17 43.3 °F 37.9 °F 29.53 in WSW 10.0 mph 16.0 mph 81 % 0.00 in 0 W/m2
22:22 43.2 °F 37.7 °F 29.52 in WSW 10.0 mph 16.0 mph 81 % 0.00 in 0 W/m2
22:27 43.0 °F 37.5 °F 29.52 in WSW 10.0 mph 16.0 mph 81 % 0.00 in 0 W/m2
22:32 43.0 °F 37.5 °F 29.52 in WSW 10.0 mph 16.0 mph 81 % 0.00 in 0 W/m2
22:37 42.6 °F 37.5 °F 29.52 in WSW 9.0 mph 18.0 mph 82 % 0.00 in 0 W/m2
22:42 42.6 °F 37.5 °F 29.52 in WSW 10.0 mph 19.0 mph 82 % 0.00 in 0 W/m2
22:47 42.6 °F 37.5 °F 29.52 in WSW 11.0 mph 19.0 mph 82 % 0.00 in 0 W/m2
22:52 42.6 °F 37.5 °F 29.52 in WSW 11.0 mph 20.0 mph 82 % 0.00 in 0 W/m2
22:57 42.6 °F 37.5 °F 29.52 in WSW 11.0 mph 20.0 mph 82 % 0.00 in 0 W/m2
23:02 42.4 °F 37.3 °F 29.52 in WSW 10.0 mph 18.0 mph 82 % 0.00 in 0 W/m2
23:07 42.6 °F 37.5 °F 29.52 in SW 10.0 mph 18.0 mph 82 % 0.00 in 0 W/m2
23:12 42.4 °F 37.3 °F 29.52 in SW 10.0 mph 18.0 mph 82 % 0.00 in 0 W/m2
23:17 42.4 °F 37.6 °F 29.52 in SW 10.0 mph 15.0 mph 83 % 0.00 in 0 W/m2
23:22 42.4 °F 37.6 °F 29.52 in SW 11.0 mph 22.0 mph 83 % 0.00 in 0 W/m2
23:27 42.4 °F 37.9 °F 29.53 in SW 14.0 mph 28.0 mph 84 % 0.00 in 0 W/m2
23:32 42.1 °F 37.9 °F 29.53 in WSW 16.0 mph 31.0 mph 85 % 0.01 in 0 W/m2
23:37 41.5 °F 38.0 °F 29.54 in WSW 16.0 mph 31.0 mph 87 % 0.02 in 0 W/m2
23:42 41.2 °F 37.6 °F 29.54 in WSW 16.0 mph 30.0 mph 87 % 0.02 in 0 W/m2
23:47 40.8 °F 37.3 °F 29.53 in WSW 16.0 mph 27.0 mph 87 % 0.02 in 0 W/m2
23:52 40.3 °F 36.7 °F 29.53 in WSW 14.0 mph 27.0 mph 87 % 0.02 in 0 W/m2
23:57 39.9 °F 36.7 °F 29.53 in WSW 12.0 mph 22.0 mph 88 % 0.02 in 0 W/m2
Delerius-Weather
Compliments of Weather Underground - 2.25 mb

Data updates at regular intervals.